»·PEaware :: N659T KDVO-KSBP

N659T :: KDVO-KSBP

FLIGHT INFORMATION

Flight Status: Arrived
Operator: Privately registered:
United States
More flights under this callsign
Pilot: Donald L. (2830)
Aircraft: BEECH AIRCRAFT BONANZA
(BE35)
More flights by this aircraft type
Origin: KDVO Gnoss
United States
Destination: KSBP San Luis Co Regl
United States
More flights between these airports :: More routes between these airports
Route: +PYE V27 CALIS CREPE
File this flight plan on PilotEdge
Remarks:
Altitude:
(Current/Filed)
11,000ft
Speed:
(Current/Filed)
170kts
Departed: 16-Feb-18 08:50 PM
Arrived: 16-Feb-18 10:08 PM
Distance/Time
Traveled:
197nm/1:18
Distance/Time
To Go:
Arrived

Flight Plot

Page will automatically refresh every two minutes.

Flight plan parsing failed; only flown route is shown


Map Options




Map Legend


Flown Route
Filed Route
Departure Airport
Arrival Airport
Navaid (VOR, NDB)
Fix

Horizontal Profiles

Position Reports

Time Latitude Longitude Heading Altitude Ground
Speed
16-Feb-18 20:52 38.141536 -122.557473 238 4ft 0kts
16-Feb-18 20:53 38.141663 -122.557352 72 4ft 5kts
16-Feb-18 20:54 38.141207 -122.555920 151 4ft 22kts
16-Feb-18 20:55 38.139624 -122.554744 139 4ft 0kts
16-Feb-18 20:56 38.139634 -122.554381 56 4ft 9kts
16-Feb-18 20:57 38.156963 -122.566929 328 678ft 111kts
16-Feb-18 20:58 38.174053 -122.593193 258 2052ft 105kts
16-Feb-18 20:59 38.151612 -122.622448 229 3005ft 129kts
16-Feb-18 21:00 38.125627 -122.655797 234 3866ft 133kts
16-Feb-18 21:01 38.108417 -122.692545 253 4864ft 130kts
16-Feb-18 21:02 38.093848 -122.735240 259 5754ft 136kts
16-Feb-18 21:03 38.081501 -122.782812 257 6719ft 142kts
16-Feb-18 21:04 38.069036 -122.828851 255 7809ft 128kts
16-Feb-18 21:05 38.042673 -122.857300 170 8581ft 153kts
16-Feb-18 21:06 38.008243 -122.837523 152 9522ft 143kts
16-Feb-18 21:07 37.971811 -122.817655 158 10333ft 141kts
16-Feb-18 21:08 37.934582 -122.798972 159 10999ft 149kts
16-Feb-18 21:09 37.890398 -122.777241 158 11018ft 188kts
16-Feb-18 21:10 37.839225 -122.753863 159 10986ft 197kts
16-Feb-18 21:11 37.787232 -122.729637 158 10984ft 199kts
16-Feb-18 21:12 37.735196 -122.705113 158 10980ft 200kts
16-Feb-18 21:13 37.682989 -122.680309 158 10977ft 199kts
16-Feb-18 21:14 37.631191 -122.655458 158 10975ft 199kts
16-Feb-18 21:15 37.579501 -122.630476 158 10974ft 199kts
16-Feb-18 21:16 37.527722 -122.605242 158 10972ft 199kts
16-Feb-18 21:17 37.476167 -122.579907 158 10970ft 199kts
16-Feb-18 21:18 37.424697 -122.554417 158 10970ft 199kts
16-Feb-18 21:19 37.373206 -122.528799 159 10971ft 199kts
16-Feb-18 21:20 37.320706 -122.506451 162 10971ft 199kts
16-Feb-18 21:21 37.268360 -122.484358 161 10980ft 198kts
16-Feb-18 21:22 37.215919 -122.461900 161 10982ft 198kts
16-Feb-18 21:23 37.163722 -122.439227 161 10983ft 198kts
16-Feb-18 21:24 37.111452 -122.416209 161 10984ft 198kts
16-Feb-18 21:25 37.059698 -122.391926 148 10985ft 199kts
16-Feb-18 21:26 37.014412 -122.351544 145 10986ft 199kts
16-Feb-18 21:27 36.968475 -122.312624 145 10987ft 199kts
16-Feb-18 21:28 36.922641 -122.273445 145 10984ft 200kts
16-Feb-18 21:29 36.876809 -122.233840 144 10986ft 199kts
16-Feb-18 21:30 36.831351 -122.194123 144 10986ft 199kts
16-Feb-18 21:31 36.785922 -122.153904 144 10985ft 199kts
16-Feb-18 21:32 36.740861 -122.113545 144 10983ft 199kts
16-Feb-18 21:33 36.695981 -122.072939 144 10982ft 199kts
16-Feb-18 21:34 36.651067 -122.031892 144 10981ft 200kts
16-Feb-18 21:35 36.605190 -121.992761 147 10981ft 199kts
16-Feb-18 21:36 36.559901 -121.953361 146 10979ft 198kts
16-Feb-18 21:37 36.514796 -121.913845 146 10979ft 197kts
16-Feb-18 21:38 36.470032 -121.874436 146 10979ft 198kts
16-Feb-18 21:39 36.425149 -121.834602 146 10978ft 198kts
16-Feb-18 21:40 36.380270 -121.795077 146 11033ft 197kts
16-Feb-18 21:41 36.335555 -121.755390 146 11036ft 198kts
16-Feb-18 21:42 36.290193 -121.715943 148 11033ft 198kts
16-Feb-18 21:43 36.244402 -121.677582 148 11031ft 199kts
16-Feb-18 21:44 36.198311 -121.640077 158 11030ft 197kts
16-Feb-18 21:45 36.147666 -121.614110 162 11027ft 196kts
16-Feb-18 21:46 36.097028 -121.588586 162 11028ft 197kts
16-Feb-18 21:47 36.046317 -121.562913 161 11029ft 197kts
16-Feb-18 21:48 35.995461 -121.537063 161 11024ft 197kts
16-Feb-18 21:49 35.944868 -121.511453 161 11022ft 196kts
16-Feb-18 21:50 35.894414 -121.485917 161 11020ft 196kts
16-Feb-18 21:51 35.844110 -121.460328 161 11018ft 196kts
16-Feb-18 21:52 35.793824 -121.434627 161 11015ft 196kts
16-Feb-18 21:53 35.743445 -121.408887 161 11007ft 195kts
16-Feb-18 21:54 35.693353 -121.383146 159 11003ft 195kts
16-Feb-18 21:55 35.643789 -121.355615 158 10994ft 195kts
16-Feb-18 21:56 35.605434 -121.309592 123 11002ft 197kts
16-Feb-18 21:57 35.573451 -121.254927 125 11000ft 197kts
16-Feb-18 21:58 35.541016 -121.200853 126 10998ft 192kts
16-Feb-18 21:59 35.509328 -121.149160 126 10998ft 188kts
16-Feb-18 22:00 35.476445 -121.095441 126 10435ft 206kts
16-Feb-18 22:01 35.442170 -121.039313 126 9733ft 199kts
16-Feb-18 22:02 35.409572 -120.985850 126 9034ft 191kts
16-Feb-18 22:03 35.378541 -120.934789 125 8333ft 184kts
16-Feb-18 22:04 35.341058 -120.930030 259 7625ft 168kts
16-Feb-18 22:05 35.368889 -120.937566 74 6933ft 167kts
16-Feb-18 22:06 35.351871 -120.889904 175 6244ft 166kts
16-Feb-18 22:07 35.349911 -120.920696 3 5546ft 151kts
16-Feb-18 22:08 35.364748 -120.873717 76 4871ft 163kts
16-Feb-18 22:09 35.341623 -120.822647 124 3756ft 193kts
16-Feb-18 22:10 35.314216 -120.775364 118 2573ft 134kts
16-Feb-18 22:11 35.294009 -120.741333 124 2151ft 138kts
16-Feb-18 22:12 35.272760 -120.702632 124 1350ft 139kts
16-Feb-18 22:13 35.251543 -120.666170 123 688ft 120kts
16-Feb-18 22:14 35.236279 -120.639158 124 215ft 58kts
16-Feb-18 22:15 35.234191 -120.633859 23 214ft 10kts
16-Feb-18 22:16 35.236430 -120.637381 298 214ft 10kts
16-Feb-18 22:17 35.238010 -120.639047 22 214ft 6kts
16-Feb-18 22:18 35.238271 -120.639182 270 214ft 0kts

Navigation Log

Ident Type
Flight plan parsing failed, navigation log unavailable